Time;durP1;ratioP1;P1;durP2;ratioP2;P2;SDS_P1;SDS_P2;PMS_P1;PMS_P2;Temp;Humidity;BMP_temperature;BMP_pressure;BME280_temperature;BME280_humidity;BME280_pressure;Samples;Min_cycle;Max_cycle;Signal;HPM_P1;HPM_P2
2023/06/13 00:01:48;;;;;;;8.70;5.03;;;18.20;82.30;;;;;;5053569;28;20037;-63
2023/06/13 00:04:23;;;;;;;11.32;5.80;;;18.20;82.70;;;;;;5019558;28;20489;-63
2023/06/13 00:06:50;;;;;;;7.28;4.78;;;18.10;82.90;;;;;;5053933;28;20036;-62
2023/06/13 00:09:17;;;;;;;8.30;5.45;;;18.10;83.00;;;;;;5053063;28;20041;-63
2023/06/13 00:11:45;;;;;;;7.57;4.53;;;18.00;82.80;;;;;;5053833;28;20072;-62
2023/06/13 00:14:11;;;;;;;8.80;5.45;;;18.00;83.10;;;;;;5035824;28;20548;-63
2023/06/13 00:16:38;;;;;;;9.02;5.25;;;18.00;82.80;;;;;;5051382;28;20068;-63
2023/06/13 00:19:05;;;;;;;8.52;5.65;;;18.00;82.90;;;;;;5052450;28;20049;-62
2023/06/13 00:21:32;;;;;;;14.23;5.43;;;17.90;83.20;;;;;;5053544;28;20410;-63
2023/06/13 00:23:58;;;;;;;11.35;5.53;;;17.90;83.80;;;;;;5044493;28;20041;-62
2023/06/13 00:26:23;;;;;;;8.95;5.30;;;17.80;84.10;;;;;;5052946;28;20045;-62
2023/06/13 00:28:49;;;;;;;8.65;5.75;;;17.70;84.40;;;;;;5053603;28;20035;-62
2023/06/13 00:31:16;;;;;;;7.72;5.47;;;17.70;84.50;;;;;;5034317;28;20075;-63
2023/06/13 00:33:43;;;;;;;7.00;4.65;;;17.70;84.70;;;;;;5035744;28;20048;-62
2023/06/13 00:36:09;;;;;;;9.13;5.38;;;17.70;85.00;;;;;;5049837;28;20076;-62
2023/06/13 00:38:36;;;;;;;11.15;5.22;;;17.60;85.50;;;;;;5073486;28;20149;-63
2023/06/13 00:41:02;;;;;;;10.82;4.75;;;17.60;85.60;;;;;;5055342;28;20515;-63
2023/06/13 00:43:28;;;;;;;7.68;4.93;;;17.60;86.00;;;;;;5037427;28;20189;-63
2023/06/13 00:45:55;;;;;;;8.68;5.47;;;17.50;86.50;;;;;;5041955;28;20102;-63
2023/06/13 00:48:21;;;;;;;8.57;5.15;;;17.50;86.90;;;;;;5035015;28;20123;-63
2023/06/13 00:50:47;;;;;;;10.00;4.57;;;17.40;87.20;;;;;;5052729;28;20039;-63
2023/06/13 00:53:18;;;;;;;9.95;4.82;;;17.40;87.80;;;;;;5034977;28;20549;-62
2023/06/13 00:55:44;;;;;;;11.05;5.03;;;17.40;88.50;;;;;;5053137;28;20460;-63
2023/06/13 00:58:11;;;;;;;8.90;4.38;;;17.30;88.80;;;;;;5034353;28;20055;-63
2023/06/13 01:00:38;;;;;;;8.80;4.60;;;17.30;89.50;;;;;;5035107;28;20536;-63
2023/06/13 01:03:10;;;;;;;9.15;4.32;;;17.30;89.90;;;;;;5018999;28;20094;-62
2023/06/13 01:05:37;;;;;;;7.68;4.53;;;17.20;90.20;;;;;;5041351;28;20432;-63
2023/06/13 01:08:08;;;;;;;7.18;3.97;;;17.20;90.30;;;;;;5052758;28;20037;-62
2023/06/13 01:10:34;;;;;;;12.13;4.68;;;17.20;90.50;;;;;;5035003;28;20037;-62
2023/06/13 01:13:08;;;;;;;8.27;4.15;;;17.10;90.80;;;;;;5051944;28;20080;-62
2023/06/13 01:15:43;;;;;;;8.20;4.35;;;17.10;91.00;;;;;;5036128;28;20045;-62
2023/06/13 01:18:10;;;;;;;;;;;17.10;91.30;;;;;;5018949;28;20167;-62
2023/06/13 01:20:37;;;;;;;7.57;4.88;;;17.00;91.40;;;;;;5034058;28;19916;-63
2023/06/13 01:23:15;;;;;;;9.32;5.00;;;17.00;91.70;;;;;;5034871;28;20098;-63
2023/06/13 01:26:03;;;;;;;6.05;3.83;;;17.00;92.10;;;;;;5052038;28;20413;-63
2023/06/13 01:28:33;;;;;;;6.30;3.95;;;17.00;92.80;;;;;;5052420;28;20045;-63
2023/06/13 01:31:02;;;;;;;7.85;4.38;;;16.90;92.60;;;;;;5034988;28;20049;-62
2023/06/13 01:33:28;;;;;;;6.65;3.90;;;16.90;93.00;;;;;;5017099;28;20040;-62
2023/06/13 01:35:55;;;;;;;8.57;4.15;;;16.80;93.30;;;;;;5052715;28;20036;-63
2023/06/13 01:38:21;;;;;;;7.32;4.10;;;16.80;93.50;;;;;;5052535;28;20044;-62
2023/06/13 01:40:48;;;;;;;7.47;3.65;;;16.80;93.80;;;;;;5051788;28;20041;-62
2023/06/13 01:43:13;;;;;;;8.27;4.05;;;16.80;94.20;;;;;;5039886;28;20053;-63
2023/06/13 01:45:40;;;;;;;10.48;4.10;;;16.70;94.40;;;;;;5056298;28;20395;-63
2023/06/13 01:48:18;;;;;;;5.95;3.55;;;16.70;94.60;;;;;;5055963;28;20115;-63
2023/06/13 01:51:27;;;;;;;10.13;4.25;;;16.60;94.90;;;;;;5056669;28;20429;-63
2023/06/13 01:53:56;;;;;;;10.23;4.63;;;16.60;95.10;;;;;;5033398;28;20053;-63
2023/06/13 01:56:27;;;;;;;8.00;4.38;;;16.50;95.50;;;;;;5040762;28;20040;-63
2023/06/13 01:58:57;;;;;;;9.75;4.80;;;16.50;95.80;;;;;;5058760;28;20048;-63
2023/06/13 02:01:25;;;;;;;6.90;3.92;;;16.40;96.00;;;;;;5075202;28;20040;-63
2023/06/13 02:03:51;;;;;;;7.05;4.10;;;16.40;96.10;;;;;;5076013;28;20102;-62
2023/06/13 02:06:17;;;;;;;9.25;4.20;;;16.40;96.40;;;;;;5075410;28;20079;-62
2023/06/13 02:08:44;;;;;;;7.38;4.60;;;16.40;96.50;;;;;;5075132;28;20051;-62
2023/06/13 02:11:10;;;;;;;10.07;4.07;;;16.40;96.70;;;;;;5058166;28;20050;-62
2023/06/13 02:13:36;;;;;;;8.48;4.00;;;16.30;96.90;;;;;;5058179;28;20389;-62
2023/06/13 02:16:01;;;;;;;7.70;4.55;;;16.30;97.10;;;;;;5040990;28;20122;-63
2023/06/13 02:18:27;;;;;;;7.45;4.22;;;16.20;97.40;;;;;;5037956;28;20124;-63
2023/06/13 02:20:54;;;;;;;10.30;4.57;;;16.20;97.50;;;;;;5038407;28;20037;-63
2023/06/13 02:23:20;;;;;;;7.32;4.50;;;16.20;97.70;;;;;;5054710;28;20154;-63
2023/06/13 02:25:47;;;;;;;8.73;5.00;;;16.10;97.80;;;;;;5030686;28;20490;-63
2023/06/13 02:28:13;;;;;;;9.45;5.07;;;16.10;98.00;;;;;;5037682;28;20382;-63
2023/06/13 02:30:39;;;;;;;8.88;4.60;;;16.10;98.10;;;;;;5037155;28;20041;-63
2023/06/13 02:33:05;;;;;;;7.10;4.57;;;16.10;98.10;;;;;;5055895;28;20083;-62
2023/06/13 02:35:31;;;;;;;7.05;4.50;;;16.00;98.20;;;;;;5045324;28;20080;-63
2023/06/13 02:37:56;;;;;;;12.43;4.80;;;16.00;98.40;;;;;;5055112;28;20068;-63
2023/06/13 02:40:25;;;;;;;7.50;4.75;;;16.00;98.40;;;;;;5055467;28;20095;-63
2023/06/13 02:42:54;;;;;;;10.00;4.85;;;16.00;98.60;;;;;;5020201;28;20057;-63
2023/06/13 02:45:20;;;;;;;7.30;4.75;;;16.00;98.60;;;;;;5055813;28;20102;-63
2023/06/13 02:47:46;;;;;;;8.73;4.82;;;15.90;98.60;;;;;;5038209;28;20041;-63
2023/06/13 02:50:11;;;;;;;7.93;4.55;;;15.90;98.80;;;;;;5037305;28;20072;-63
2023/06/13 02:52:37;;;;;;;10.32;5.43;;;15.90;98.80;;;;;;5021472;28;20037;-63
2023/06/13 02:55:08;;;;;;;11.15;4.78;;;15.80;98.90;;;;;;5055355;28;20064;-63
2023/06/13 02:57:33;;;;;;;7.43;4.53;;;15.80;99.10;;;;;;5036550;28;20106;-63
2023/06/13 03:00:00;;;;;;;8.25;4.43;;;15.80;99.10;;;;;;5055184;28;20068;-63
2023/06/13 03:02:26;;;;;;;8.45;4.82;;;15.70;99.10;;;;;;5037081;28;20485;-63
2023/06/13 03:04:52;;;;;;;7.10;4.70;;;15.70;99.30;;;;;;5054089;28;20108;-63
2023/06/13 03:07:19;;;;;;;10.27;4.82;;;15.70;99.20;;;;;;5054517;28;20577;-63
2023/06/13 03:09:44;;;;;;;6.70;4.60;;;15.70;99.30;;;;;;5055088;28;20036;-63
2023/06/13 03:12:13;;;;;;;12.55;5.65;;;15.70;99.50;;;;;;5036364;28;20119;-62
2023/06/13 03:14:38;;;;;;;8.20;4.72;;;15.70;99.20;;;;;;5036953;28;20188;-63
2023/06/13 03:17:04;;;;;;;11.00;5.07;;;15.70;99.00;;;;;;5037096;28;20448;-63
2023/06/13 03:19:30;;;;;;;9.43;5.25;;;15.70;98.80;;;;;;5035927;28;20059;-62
2023/06/13 03:21:57;;;;;;;7.28;4.40;;;15.70;98.60;;;;;;5045497;28;20477;-62
2023/06/13 03:24:22;;;;;;;8.38;5.72;;;15.80;98.50;;;;;;5056568;28;20124;-63
2023/06/13 03:26:48;;;;;;;7.38;4.63;;;15.80;98.20;;;;;;5036499;28;20128;-62
2023/06/13 03:29:13;;;;;;;7.95;4.78;;;15.80;97.90;;;;;;5054470;28;20037;-63
2023/06/13 03:31:39;;;;;;;9.55;4.78;;;15.80;97.70;;;;;;5054607;28;20041;-62
2023/06/13 03:34:06;;;;;;;7.28;4.85;;;15.80;97.60;;;;;;5035962;28;20045;-62
2023/06/13 03:36:34;;;;;;;9.60;4.05;;;15.80;97.50;;;;;;5054391;28;20037;-62
2023/06/13 03:39:00;;;;;;;7.03;4.53;;;15.90;97.20;;;;;;5053593;28;20040;-62
2023/06/13 03:41:26;;;;;;;8.55;4.90;;;15.90;97.00;;;;;;5036198;28;20045;-62
2023/06/13 03:43:52;;;;;;;9.48;5.07;;;15.90;96.70;;;;;;5044478;28;20064;-62
2023/06/13 03:46:17;;;;;;;9.88;5.70;;;15.90;96.40;;;;;;5052872;28;20742;-62
2023/06/13 03:48:43;;;;;;;7.55;4.93;;;15.90;96.30;;;;;;5054584;28;20055;-62
2023/06/13 03:51:09;;;;;;;7.70;4.22;;;15.90;96.20;;;;;;5036461;28;20087;-62
2023/06/13 03:53:34;;;;;;;8.43;4.78;;;15.90;96.00;;;;;;5053173;28;20033;-62
2023/06/13 03:56:00;;;;;;;10.82;4.63;;;15.90;95.90;;;;;;5053070;28;20085;-62
2023/06/13 03:58:26;;;;;;;14.45;5.03;;;16.00;95.70;;;;;;5052604;28;20075;-62
2023/06/13 04:00:54;;;;;;;10.45;4.75;;;16.00;95.60;;;;;;5053220;28;20390;-62
2023/06/13 04:03:20;;;;;;;8.02;4.43;;;16.10;95.40;;;;;;5045687;28;20048;-62
2023/06/13 04:05:46;;;;;;;9.80;5.00;;;16.10;95.30;;;;;;5032329;28;20033;-62
2023/06/13 04:08:12;;;;;;;7.63;4.55;;;16.10;95.10;;;;;;5031950;28;20402;-62
2023/06/13 04:10:37;;;;;;;9.18;5.22;;;16.10;95.00;;;;;;5033110;28;20383;-62
2023/06/13 04:13:03;;;;;;;7.30;4.63;;;16.10;94.80;;;;;;5036776;28;20036;-62
2023/06/13 04:15:29;;;;;;;6.80;3.95;;;16.20;94.60;;;;;;5052717;28;20444;-62
2023/06/13 04:17:55;;;;;;;8.38;4.72;;;16.20;94.40;;;;;;5052549;28;20049;-62
2023/06/13 04:20:23;;;;;;;8.55;4.75;;;16.20;94.10;;;;;;5042608;28;20056;-62
2023/06/13 04:22:49;;;;;;;8.35;4.28;;;16.30;94.00;;;;;;5032841;28;20029;-62
2023/06/13 04:25:16;;;;;;;7.55;4.50;;;16.30;94.00;;;;;;5032552;28;20398;-63
2023/06/13 04:27:43;;;;;;;9.07;4.30;;;16.30;93.70;;;;;;5032375;28;20509;-62
2023/06/13 04:30:11;;;;;;;7.18;4.72;;;16.30;93.60;;;;;;5015046;28;20037;-62
2023/06/13 04:32:39;;;;;;;7.30;4.38;;;16.30;93.60;;;;;;5033513;28;20037;-62
2023/06/13 04:35:05;;;;;;;10.02;5.43;;;16.40;93.60;;;;;;5032602;28;20048;-62
2023/06/13 04:37:31;;;;;;;8.60;4.30;;;16.40;93.60;;;;;;5032621;28;20033;-62
2023/06/13 04:39:57;;;;;;;7.45;4.88;;;16.40;93.50;;;;;;5032480;28;20033;-63
2023/06/13 04:42:27;;;;;;;8.10;4.72;;;16.50;93.30;;;;;;5035772;28;20478;-62
2023/06/13 04:44:56;;;;;;;8.50;4.53;;;16.50;93.00;;;;;;5053195;28;20041;-62
2023/06/13 04:47:23;;;;;;;10.02;4.88;;;16.50;92.80;;;;;;5035150;28;20497;-62
2023/06/13 04:49:51;;;;;;;7.95;4.43;;;16.50;92.70;;;;;;5052414;28;20044;-62
2023/06/13 04:52:18;;;;;;;7.43;4.82;;;16.60;92.70;;;;;;5035085;28;20099;-62
2023/06/13 04:54:45;;;;;;;10.32;5.20;;;16.60;92.60;;;;;;5019022;28;20032;-62
2023/06/13 04:57:12;;;;;;;7.82;4.72;;;16.60;92.60;;;;;;5052307;28;20398;-62
2023/06/13 04:59:39;;;;;;;8.05;4.90;;;16.60;92.80;;;;;;5035198;28;20041;-62
2023/06/13 05:02:04;;;;;;;7.63;4.55;;;16.60;93.20;;;;;;5045674;28;20048;-62
2023/06/13 05:04:30;;;;;;;8.20;4.93;;;16.60;93.50;;;;;;5036251;28;20401;-62
2023/06/13 05:07:04;;;;;;;8.18;4.68;;;16.60;93.80;;;;;;5054986;28;20402;-62
2023/06/13 05:09:30;;;;;;;7.43;4.57;;;16.60;93.90;;;;;;5054803;28;20455;-62
2023/06/13 05:11:56;;;;;;;8.23;4.72;;;16.70;94.00;;;;;;5072004;28;20286;-62
2023/06/13 05:14:22;;;;;;;9.18;4.55;;;16.70;94.20;;;;;;5050250;28;20486;-61
2023/06/13 05:16:47;;;;;;;8.70;4.28;;;16.70;94.10;;;;;;5034140;28;20040;-61
2023/06/13 05:19:13;;;;;;;8.60;5.10;;;16.80;94.20;;;;;;5051718;28;20405;-62
2023/06/13 05:21:39;;;;;;;7.10;4.50;;;16.80;94.20;;;;;;5034822;28;20045;-62
2023/06/13 05:24:07;;;;;;;7.95;4.22;;;16.90;94.20;;;;;;5035253;28;20067;-62
2023/06/13 05:26:33;;;;;;;7.35;4.43;;;16.90;94.00;;;;;;5033810;28;20496;-61
2023/06/13 05:28:59;;;;;;;8.45;4.60;;;17.00;93.80;;;;;;5052825;28;20398;-61
2023/06/13 05:31:24;;;;;;;9.02;4.13;;;17.10;93.80;;;;;;5034821;28;20045;-61
2023/06/13 05:33:50;;;;;;;8.23;4.78;;;17.20;93.50;;;;;;5034774;28;20056;-62
2023/06/13 05:36:17;;;;;;;6.32;4.30;;;17.30;93.40;;;;;;5034201;28;20037;-62
2023/06/13 05:38:43;;;;;;;8.95;4.88;;;17.40;93.20;;;;;;5034106;28;20052;-62
2023/06/13 05:41:08;;;;;;;8.13;4.80;;;17.50;93.20;;;;;;5051818;28;20481;-62
2023/06/13 05:43:34;;;;;;;9.25;4.43;;;17.70;93.10;;;;;;5050684;28;20506;-62
2023/06/13 05:46:00;;;;;;;12.55;4.28;;;17.80;92.20;;;;;;5035606;28;20057;-63
2023/06/13 05:48:26;;;;;;;7.47;4.20;;;17.90;91.60;;;;;;5047109;28;20124;-63
2023/06/13 05:50:51;;;;;;;7.50;4.05;;;18.00;91.10;;;;;;5051879;28;20076;-62
2023/06/13 05:53:17;;;;;;;6.85;4.05;;;18.00;90.60;;;;;;5031358;28;20109;-63
2023/06/13 05:55:44;;;;;;;7.32;3.90;;;18.10;89.40;;;;;;5069799;28;20478;-63
2023/06/13 05:58:10;;;;;;;8.30;3.92;;;18.30;88.00;;;;;;5047082;28;20076;-63
2023/06/13 06:00:36;;;;;;;7.05;4.20;;;18.30;86.30;;;;;;5048344;28;20099;-63
2023/06/13 06:03:02;;;;;;;7.95;4.10;;;18.40;85.30;;;;;;5031857;28;20045;-63
2023/06/13 06:05:29;;;;;;;7.70;4.03;;;18.50;84.40;;;;;;5049433;28;20095;-61
2023/06/13 06:07:54;;;;;;;6.03;4.05;;;18.60;83.90;;;;;;5049351;28;20473;-61
2023/06/13 06:10:20;;;;;;;6.65;3.85;;;18.70;83.70;;;;;;5040149;28;20059;-61
2023/06/13 06:12:46;;;;;;;5.78;3.13;;;18.80;83.20;;;;;;5066533;28;20047;-65
2023/06/13 06:15:12;;;;;;;5.70;3.17;;;18.90;83.40;;;;;;5050701;28;20041;-64
2023/06/13 06:17:37;;;;;;;8.48;3.53;;;19.00;82.70;;;;;;5041321;28;20051;-67
2023/06/13 06:20:06;;;;;;;7.43;3.28;;;19.00;81.10;;;;;;5065558;28;20489;-68
2023/06/13 06:22:31;;;;;;;7.05;3.80;;;19.10;81.20;;;;;;5050631;28;20052;-68
2023/06/13 06:24:57;;;;;;;6.68;4.00;;;19.20;80.80;;;;;;5039005;28;20047;-67
2023/06/13 06:27:23;;;;;;;8.57;3.80;;;19.30;80.60;;;;;;5030869;28;20551;-67
2023/06/13 06:29:48;;;;;;;6.45;3.08;;;19.40;79.70;;;;;;5034720;28;20040;-67
2023/06/13 06:32:14;;;;;;;6.03;3.38;;;19.50;79.30;;;;;;5046815;28;20036;-67
2023/06/13 06:34:40;;;;;;;7.22;3.75;;;19.60;79.60;;;;;;5052283;28;20131;-67
2023/06/13 06:37:05;;;;;;;6.30;3.55;;;19.70;80.10;;;;;;5033661;28;20041;-66
2023/06/13 06:39:31;;;;;;;5.53;3.00;;;19.80;79.30;;;;;;5033559;28;20191;-66
2023/06/13 06:41:57;;;;;;;8.30;3.55;;;19.90;79.00;;;;;;5051810;28;20102;-66
2023/06/13 06:44:23;;;;;;;7.78;3.75;;;19.90;79.00;;;;;;5066475;28;20536;-67
2023/06/13 06:46:48;;;;;;;7.13;3.47;;;20.00;78.60;;;;;;5037354;28;20094;-60
2023/06/13 06:49:17;;;;;;;7.72;4.05;;;20.00;78.70;;;;;;5037170;28;20095;-59
2023/06/13 06:51:43;;;;;;;7.43;3.83;;;20.10;78.00;;;;;;5053283;28;20128;-60
2023/06/13 06:54:10;;;;;;;7.00;3.72;;;20.20;78.30;;;;;;5068481;28;20136;-60
2023/06/13 06:56:36;;;;;;;6.65;3.30;;;20.40;78.20;;;;;;5053828;28;20501;-59
2023/06/13 06:59:01;;;;;;;6.95;2.83;;;20.40;77.30;;;;;;5062775;28;20045;-59
2023/06/13 07:01:27;;;;;;;7.38;3.60;;;20.50;76.20;;;;;;5051000;28;20044;-59
2023/06/13 07:03:53;;;;;;;8.95;3.25;;;20.50;75.50;;;;;;5050069;28;20084;-59
2023/06/13 07:06:22;;;;;;;7.00;2.92;;;20.60;75.20;;;;;;5047120;28;20140;-59
2023/06/13 07:08:48;;;;;;;6.63;3.25;;;20.70;75.00;;;;;;5063140;28;20051;-59
2023/06/13 07:11:13;;;;;;;6.95;3.65;;;20.80;74.90;;;;;;5052317;28;20068;-59
2023/06/13 07:13:39;;;;;;;7.22;3.60;;;20.90;73.00;;;;;;5053745;28;20095;-59
2023/06/13 07:16:05;;;;;;;5.50;2.80;;;20.90;70.90;;;;;;5053866;28;20048;-60
2023/06/13 07:18:31;;;;;;;8.73;2.80;;;20.90;70.50;;;;;;5036048;28;20393;-60
2023/06/13 07:20:56;;;;;;;9.10;2.83;;;21.00;67.00;;;;;;5071084;28;20086;-60
2023/06/13 07:23:22;;;;;;;5.13;2.60;;;21.00;66.50;;;;;;5053375;28;20104;-60
2023/06/13 07:25:48;;;;;;;5.38;2.80;;;21.20;67.50;;;;;;5034473;28;20040;-60
2023/06/13 07:28:13;;;;;;;5.72;2.55;;;21.20;65.90;;;;;;5074474;28;20032;-60
2023/06/13 07:30:39;;;;;;;7.72;3.15;;;21.30;65.00;;;;;;5073066;28;20134;-60
2023/06/13 07:33:05;;;;;;;6.82;2.95;;;21.50;64.90;;;;;;5072138;28;20036;-60
2023/06/13 07:35:32;;;;;;;9.25;3.10;;;21.50;64.50;;;;;;5072605;28;20123;-60
2023/06/13 07:37:58;;;;;;;9.98;2.80;;;21.70;63.80;;;;;;5054057;28;20169;-60
2023/06/13 07:40:24;;;;;;;6.53;3.22;;;21.80;63.40;;;;;;5071209;28;20087;-60
2023/06/13 07:42:50;;;;;;;6.82;3.03;;;21.90;62.30;;;;;;5068991;28;20118;-60
2023/06/13 07:45:16;;;;;;;6.18;2.90;;;22.00;62.40;;;;;;5029007;28;20453;-60
2023/06/13 07:47:42;;;;;;;7.38;3.10;;;22.10;62.60;;;;;;5042628;28;20044;-60
2023/06/13 07:50:08;;;;;;;4.88;2.35;;;22.20;62.10;;;;;;5049026;28;20041;-60
2023/06/13 07:52:34;;;;;;;6.82;2.90;;;22.20;62.00;;;;;;5044165;28;20132;-60
2023/06/13 07:55:00;;;;;;;5.13;3.15;;;22.40;62.20;;;;;;5037236;28;20080;-61
2023/06/13 07:57:25;;;;;;;7.68;2.85;;;22.40;61.60;;;;;;5033368;28;20080;-60
2023/06/13 07:59:55;;;;;;;5.05;2.72;;;22.50;61.80;;;;;;5034920;28;20037;-60
2023/06/13 08:02:21;;;;;;;7.95;2.95;;;22.50;60.70;;;;;;5039582;28;20053;-60
2023/06/13 08:04:46;;;;;;;5.25;2.92;;;22.50;59.70;;;;;;5044632;28;20805;-60
2023/06/13 08:07:12;;;;;;;5.00;3.13;;;22.60;60.20;;;;;;5033555;28;20081;-60
2023/06/13 08:09:38;;;;;;;5.93;3.05;;;22.70;60.20;;;;;;5048931;28;20073;-60
2023/06/13 08:12:04;;;;;;;5.93;3.33;;;22.70;59.90;;;;;;5033115;28;20056;-59
2023/06/13 08:14:29;;;;;;;5.88;2.72;;;22.80;59.50;;;;;;5032233;28;20116;-60
2023/06/13 08:16:55;;;;;;;6.55;2.78;;;22.80;58.80;;;;;;5032913;28;20124;-60
2023/06/13 08:19:21;;;;;;;6.13;3.22;;;22.90;58.60;;;;;;5031268;28;20091;-61
2023/06/13 08:21:46;;;;;;;5.30;2.83;;;22.90;57.70;;;;;;5036755;28;20041;-60
2023/06/13 08:24:14;;;;;;;6.57;3.35;;;23.00;58.00;;;;;;5035913;28;20440;-61
2023/06/13 08:26:39;;;;;;;6.45;2.85;;;22.90;57.50;;;;;;5046856;28;20048;-60
2023/06/13 08:29:05;;;;;;;5.93;3.90;;;22.90;57.90;;;;;;5052239;28;20397;-59
2023/06/13 08:31:32;;;;;;;5.43;3.40;;;22.90;58.30;;;;;;5041719;28;20049;-60
2023/06/13 08:34:01;;;;;;;7.05;3.03;;;23.00;58.10;;;;;;5045888;28;20067;-59
2023/06/13 08:36:27;;;;;;;6.18;3.17;;;23.10;58.10;;;;;;5034994;28;20556;-59
2023/06/13 08:38:57;;;;;;;8.75;3.33;;;23.20;58.50;;;;;;5031719;28;20168;-60
2023/06/13 08:41:24;;;;;;;5.75;2.92;;;23.30;58.50;;;;;;5031990;28;20041;-60
2023/06/13 08:43:51;;;;;;;5.13;3.53;;;23.40;58.10;;;;;;5049050;28;20053;-60
2023/06/13 08:46:16;;;;;;;5.95;3.38;;;23.50;58.20;;;;;;5050159;28;20047;-60
2023/06/13 08:48:42;;;;;;;6.40;3.45;;;23.50;58.60;;;;;;5039559;28;20740;-61
2023/06/13 08:51:13;;;;;;;8.18;3.97;;;23.50;57.60;;;;;;5032804;28;20037;-64
2023/06/13 08:53:51;;;;;;;5.75;3.75;;;23.50;57.20;;;;;;5032456;28;20372;-61
2023/06/13 08:56:21;;;;;;;11.50;4.50;;;23.60;57.20;;;;;;5031799;28;20029;-62
2023/06/13 08:59:09;;;;;;;13.43;3.97;;;23.60;57.30;;;;;;5031244;28;20095;-60
2023/06/13 09:01:38;;;;;;;7.78;3.47;;;23.70;57.20;;;;;;5042739;28;20036;-62
2023/06/13 09:04:07;;;;;;;8.35;4.72;;;23.80;57.40;;;;;;5049068;28;20029;-61
2023/06/13 09:06:37;;;;;;;6.45;3.45;;;23.80;57.30;;;;;;5047180;28;20059;-60
2023/06/13 09:09:06;;;;;;;7.28;3.72;;;23.80;57.50;;;;;;5052080;28;20090;-60
2023/06/13 09:11:33;;;;;;;5.47;3.38;;;23.80;56.60;;;;;;5050251;28;20378;-62
2023/06/13 09:14:00;;;;;;;5.93;3.50;;;23.80;57.20;;;;;;5043481;28;20034;-60
2023/06/13 09:16:27;;;;;;;6.25;3.65;;;23.90;56.90;;;;;;5032041;28;20041;-63
2023/06/13 09:18:53;;;;;;;7.93;4.00;;;24.00;57.30;;;;;;5030292;28;20050;-62
2023/06/13 09:21:20;;;;;;;8.05;3.70;;;24.00;56.60;;;;;;5043179;28;20059;-62
2023/06/13 09:23:48;;;;;;;8.15;4.10;;;24.10;57.10;;;;;;5032537;28;20056;-62
2023/06/13 09:26:17;;;;;;;9.07;3.63;;;24.10;57.50;;;;;;5030781;28;20046;-60
2023/06/13 09:28:45;;;;;;;5.45;3.03;;;24.10;60.20;;;;;;5032325;28;20117;-63
2023/06/13 09:31:11;;;;;;;5.78;2.92;;;24.10;61.90;;;;;;5039399;28;20604;-64
2023/06/13 09:33:37;;;;;;;5.60;3.08;;;24.10;62.60;;;;;;5037465;28;20116;-62
2023/06/13 09:36:07;;;;;;;5.05;3.20;;;24.10;62.00;;;;;;5047587;28;20037;-60
2023/06/13 09:38:35;;;;;;;5.47;3.22;;;24.20;63.60;;;;;;5013521;28;20053;-59
2023/06/13 09:41:02;;;;;;;6.07;3.95;;;24.30;64.20;;;;;;5030598;28;20049;-62
2023/06/13 09:43:29;;;;;;;6.70;3.85;;;24.20;63.60;;;;;;5030201;28;20564;-60
2023/06/13 09:45:55;;;;;;;6.55;3.35;;;24.10;64.40;;;;;;5031332;28;20037;-63
2023/06/13 09:48:22;;;;;;;7.35;3.60;;;24.10;66.20;;;;;;5031650;28;20056;-63
2023/06/13 09:50:51;;;;;;;5.50;3.13;;;24.10;65.90;;;;;;5030669;28;20037;-63
2023/06/13 09:53:17;;;;;;;6.38;2.88;;;24.20;67.70;;;;;;5044198;28;20040;-60
2023/06/13 09:55:43;;;;;;;11.98;3.55;;;24.30;67.80;;;;;;5050552;28;20047;-60
2023/06/13 09:58:08;;;;;;;7.45;3.20;;;24.40;67.10;;;;;;5050822;28;20049;-61
2023/06/13 10:00:35;;;;;;;5.80;3.15;;;24.30;66.70;;;;;;5042999;28;20040;-62
2023/06/13 10:03:02;;;;;;;6.55;3.17;;;24.20;65.70;;;;;;5037536;28;20506;-61
2023/06/13 10:05:27;;;;;;;6.75;2.78;;;24.20;70.10;;;;;;5051611;28;20052;-62
2023/06/13 10:07:54;;;;;;;5.63;2.55;;;24.10;72.60;;;;;;5040879;28;20946;-61
2023/06/13 10:10:20;;;;;;;6.10;2.75;;;24.10;74.10;;;;;;5041151;28;20053;-60
2023/06/13 10:13:02;;;;;;;7.75;3.40;;;24.20;75.70;;;;;;5032130;28;20532;-59
2023/06/13 10:15:43;;;;;;;5.45;2.72;;;24.00;76.00;;;;;;5015169;28;20447;-60
2023/06/13 10:18:12;;;;;;;9.13;2.70;;;23.90;76.90;;;;;;5042476;28;20084;-60
2023/06/13 10:20:40;;;;;;;5.88;2.95;;;23.90;77.00;;;;;;5032134;28;20041;-60
2023/06/13 10:23:13;;;;;;;5.15;2.85;;;23.80;76.80;;;;;;5015318;28;20168;-61
2023/06/13 10:25:41;;;;;;;11.35;3.08;;;23.80;77.20;;;;;;5031488;28;20044;-60
2023/06/13 10:28:34;;;;;;;7.82;3.03;;;23.80;76.80;;;;;;5014697;28;20137;-60
2023/06/13 10:31:13;;;;;;;7.90;2.85;;;23.70;75.90;;;;;;5034279;28;20044;-62
2023/06/13 10:33:42;;;;;;;7.40;2.72;;;23.70;75.70;;;;;;5042614;28;20041;-60
2023/06/13 10:36:27;;;;;;;7.05;3.35;;;23.70;74.80;;;;;;5031218;28;20045;-60
2023/06/13 10:39:11;;;;;;;6.50;2.75;;;23.50;75.00;;;;;;5032628;28;20056;-60
2023/06/13 10:41:47;;;;;;;7.00;2.80;;;23.40;74.70;;;;;;5015172;28;20045;-61
2023/06/13 10:44:23;;;;;;;5.97;2.38;;;23.40;74.90;;;;;;5050876;28;20057;-60
2023/06/13 10:46:49;;;;;;;5.40;2.63;;;23.40;74.50;;;;;;5051812;28;20045;-61
2023/06/13 10:49:18;;;;;;;8.45;2.90;;;23.50;73.20;;;;;;5049655;28;20481;-60
2023/06/13 10:51:45;;;;;;;5.30;2.58;;;23.60;70.70;;;;;;5052451;28;20076;-60
2023/06/13 10:54:12;;;;;;;5.28;3.05;;;23.70;69.60;;;;;;5051340;28;20041;-60
2023/06/13 10:56:43;;;;;;;6.07;2.60;;;23.50;67.50;;;;;;5050071;28;20045;-60
2023/06/13 10:59:19;;;;;;;7.80;2.60;;;23.50;66.20;;;;;;5052713;28;20091;-60
2023/06/13 11:01:45;;;;;;;5.10;2.42;;;23.50;63.90;;;;;;5045099;28;20083;-61
2023/06/13 11:04:21;;;;;;;6.40;2.30;;;23.70;64.60;;;;;;5030602;28;20411;-62
2023/06/13 11:06:51;;;;;;;6.80;2.17;;;23.70;62.90;;;;;;5024837;28;20402;-61
2023/06/13 11:09:26;;;;;;;6.25;2.25;;;23.80;62.20;;;;;;5034846;28;20040;-61
2023/06/13 11:12:00;;;;;;;6.68;2.13;;;23.80;60.70;;;;;;5049671;28;20047;-60
2023/06/13 11:14:33;;;;;;;6.05;2.55;;;23.80;62.30;;;;;;5049824;28;20083;-61
2023/06/13 11:17:01;;;;;;;6.18;2.47;;;23.90;64.50;;;;;;5048483;28;20077;-60
2023/06/13 11:19:27;;;;;;;7.47;2.65;;;23.80;65.00;;;;;;5051227;28;20036;-61
2023/06/13 11:21:59;;;;;;;5.85;2.22;;;23.70;64.90;;;;;;5045086;28;20445;-60
2023/06/13 11:24:27;;;;;;;7.40;2.13;;;23.70;65.40;;;;;;5044812;28;20371;-60
2023/06/13 11:26:56;;;;;;;6.50;2.40;;;23.90;65.80;;;;;;5043859;28;20041;-60
2023/06/13 11:29:22;;;;;;;6.60;2.40;;;23.90;67.10;;;;;;5050316;28;20122;-60
2023/06/13 11:31:51;;;;;;;6.30;2.20;;;23.80;65.10;;;;;;5032837;28;20045;-61
2023/06/13 11:34:18;;;;;;;6.70;2.28;;;23.70;65.40;;;;;;5031411;28;20132;-60
2023/06/13 11:36:46;;;;;;;6.60;2.15;;;23.80;65.80;;;;;;5031380;28;20037;-61
2023/06/13 11:39:15;;;;;;;5.07;2.17;;;23.90;62.10;;;;;;5029801;28;20376;-60
2023/06/13 11:41:43;;;;;;;5.40;2.50;;;23.80;58.70;;;;;;5030310;28;20230;-62
2023/06/13 11:44:09;;;;;;;6.85;2.20;;;23.70;57.90;;;;;;5013415;28;20061;-62
2023/06/13 11:46:41;;;;;;;5.15;2.20;;;23.60;57.60;;;;;;5029724;28;20044;-60
2023/06/13 11:49:12;;;;;;;7.40;2.50;;;23.60;57.50;;;;;;5031824;28;20037;-60
2023/06/13 11:51:38;;;;;;;5.00;2.22;;;23.50;57.20;;;;;;5038721;28;20486;-59
2023/06/13 11:54:04;;;;;;;5.88;2.30;;;23.60;58.50;;;;;;5038375;28;20037;-60
2023/06/13 11:56:34;;;;;;;6.13;2.15;;;23.50;58.10;;;;;;5030024;28;20033;-61
2023/06/13 11:59:00;;;;;;;6.50;1.98;;;23.40;59.30;;;;;;5030670;28;20045;-60
2023/06/13 12:01:30;;;;;;;7.20;2.22;;;23.60;60.00;;;;;;5032718;28;20045;-61
2023/06/13 12:03:58;;;;;;;6.38;2.25;;;23.60;58.50;;;;;;5029927;28;20457;-61
2023/06/13 12:06:25;;;;;;;4.60;2.05;;;23.50;57.60;;;;;;5030274;28;20044;-61
2023/06/13 12:08:51;;;;;;;5.88;2.20;;;23.50;57.40;;;;;;5029488;28;20107;-60
2023/06/13 12:11:19;;;;;;;4.78;2.10;;;23.50;57.20;;;;;;5031405;28;20048;-60
2023/06/13 12:13:55;;;;;;;6.80;2.47;;;23.70;58.40;;;;;;5012623;28;20128;-60
2023/06/13 12:16:31;;;;;;;5.60;2.30;;;23.80;57.00;;;;;;5030041;28;20049;-61
2023/06/13 12:18:59;;;;;;;4.65;1.95;;;24.00;57.60;;;;;;5030221;28;20045;-60
2023/06/13 12:21:30;;;;;;;7.72;2.35;;;24.00;57.10;;;;;;5036673;28;20071;-60
2023/06/13 12:23:58;;;;;;;4.65;2.00;;;24.10;57.30;;;;;;5049875;28;20408;-60
2023/06/13 12:26:32;;;;;;;3.92;1.77;;;24.00;57.30;;;;;;5033653;28;20506;-60
2023/06/13 12:29:01;;;;;;;4.30;1.95;;;24.10;57.70;;;;;;5030671;28;20041;-59
2023/06/13 12:31:29;;;;;;;6.07;2.25;;;24.00;58.50;;;;;;5012759;28;20037;-61
2023/06/13 12:34:04;;;;;;;6.10;2.03;;;24.00;58.50;;;;;;5028279;28;20532;-60
2023/06/13 12:36:46;;;;;;;4.40;2.20;;;24.00;58.30;;;;;;5012867;28;20034;-59
2023/06/13 12:39:14;;;;;;;5.78;2.75;;;23.80;58.20;;;;;;5042145;28;20076;-59
2023/06/13 12:41:45;;;;;;;7.22;2.67;;;23.70;58.90;;;;;;5048671;28;20624;-60
2023/06/13 12:44:11;;;;;;;5.00;2.20;;;23.80;61.10;;;;;;5032238;28;20498;-60
2023/06/13 12:46:40;;;;;;;7.13;1.90;;;23.70;62.30;;;;;;5048079;28;20102;-60
2023/06/13 12:49:14;;;;;;;5.18;2.17;;;23.90;63.10;;;;;;5028866;28;20053;-61